Time;durP1;ratioP1;P1;durP2;ratioP2;P2;SDS_P1;SDS_P2;PMS_P1;PMS_P2;Temp;Humidity;BMP_temperature;BMP_pressure;BME280_temperature;BME280_humidity;BME280_pressure;Samples;Min_cycle;Max_cycle;Signal;HPM_P1;HPM_P2
2022/07/13 00:00:12;;;;;;;1.80;1.52;;;19.00;99.90;;;;;;6240996;22;20065;-68
2022/07/13 00:02:38;;;;;;;2.30;2.10;;;19.00;99.90;;;;;;6240671;22;20073;-68
2022/07/13 00:05:06;;;;;;;4.13;1.88;;;19.00;99.90;;;;;;6241944;22;20020;-68
2022/07/13 00:07:32;;;;;;;7.38;2.00;;;19.00;99.90;;;;;;6268149;22;20018;-69
2022/07/13 00:09:58;;;;;;;5.03;1.88;;;19.00;99.90;;;;;;6216475;22;20431;-69
2022/07/13 00:12:25;;;;;;;2.85;1.80;;;19.00;99.90;;;;;;6215457;22;20022;-68
2022/07/13 00:14:50;;;;;;;5.57;1.80;;;19.00;99.90;;;;;;6269148;22;20016;-69
2022/07/13 00:17:16;;;;;;;3.10;1.63;;;19.00;99.90;;;;;;6241213;22;20080;-67
2022/07/13 00:19:42;;;;;;;5.03;1.70;;;19.00;99.90;;;;;;6241741;22;20026;-68
2022/07/13 00:22:08;;;;;;;2.17;1.70;;;19.00;99.90;;;;;;6241661;22;20104;-68
2022/07/13 00:24:34;;;;;;;11.30;1.85;;;19.10;99.90;;;;;;6240795;22;20012;-68
2022/07/13 00:26:59;;;;;;;3.35;1.80;;;19.10;99.90;;;;;;6241664;22;20016;-68
2022/07/13 00:29:25;;;;;;;5.63;1.95;;;19.10;99.90;;;;;;6268156;22;20073;-68
2022/07/13 00:31:51;;;;;;;2.15;1.90;;;19.10;99.90;;;;;;6268561;22;20443;-68
2022/07/13 00:34:17;;;;;;;1.75;1.65;;;19.10;99.90;;;;;;6267944;22;20019;-68
2022/07/13 00:36:42;;;;;;;2.35;1.85;;;19.10;99.90;;;;;;6216963;22;20062;-68
2022/07/13 00:39:08;;;;;;;4.13;1.60;;;19.20;99.90;;;;;;6268588;22;20094;-68
2022/07/13 00:41:34;;;;;;;1.65;1.55;;;19.20;99.90;;;;;;6268114;22;20026;-68
2022/07/13 00:44:09;;;;;;;5.97;1.70;;;19.20;99.90;;;;;;6269268;22;20020;-68
2022/07/13 00:46:36;;;;;;;1.95;1.60;;;19.20;99.90;;;;;;6267824;22;20027;-68
2022/07/13 00:49:03;;;;;;;1.27;1.27;;;19.20;99.90;;;;;;6269181;22;20016;-68
2022/07/13 00:51:29;;;;;;;4.03;2.17;;;19.30;99.90;;;;;;6267282;22;20448;-68
2022/07/13 00:53:55;;;;;;;1.98;1.83;;;19.20;99.90;;;;;;6216255;22;20012;-68
2022/07/13 00:56:21;;;;;;;3.40;1.90;;;19.20;99.90;;;;;;6268354;22;20024;-68
2022/07/13 00:58:48;;;;;;;1.77;1.67;;;19.20;99.90;;;;;;6241611;22;20066;-68
2022/07/13 01:01:14;;;;;;;3.60;1.60;;;19.30;99.90;;;;;;6216624;22;20095;-68
2022/07/13 01:03:39;;;;;;;4.93;1.65;;;19.30;99.90;;;;;;6267676;22;20024;-69
2022/07/13 01:06:07;;;;;;;2.13;1.85;;;19.20;99.90;;;;;;6269043;22;20104;-68
2022/07/13 01:08:34;;;;;;;3.50;1.67;;;19.20;99.90;;;;;;6240469;22;20336;-68
2022/07/13 01:11:01;;;;;;;1.85;1.73;;;19.20;99.90;;;;;;6241259;22;20154;-68
2022/07/13 01:13:27;;;;;;;2.42;1.42;;;19.20;99.90;;;;;;6242662;22;20015;-68
2022/07/13 01:15:53;;;;;;;3.22;1.70;;;19.20;99.90;;;;;;6242801;22;20171;-69
2022/07/13 01:18:19;;;;;;;9.88;1.40;;;19.20;99.90;;;;;;6243668;22;20144;-68
2022/07/13 01:20:45;;;;;;;3.00;1.63;;;19.10;99.90;;;;;;6269648;22;20074;-68
2022/07/13 01:23:16;;;;;;;2.70;2.00;;;19.10;99.90;;;;;;6243435;22;20020;-68
2022/07/13 01:25:42;;;;;;;1.55;1.45;;;19.10;99.90;;;;;;6242499;22;20012;-69
2022/07/13 01:28:08;;;;;;;3.55;2.10;;;19.10;99.90;;;;;;6270728;22;20250;-68
2022/07/13 01:30:34;;;;;;;2.10;2.00;;;19.10;99.90;;;;;;6269772;22;20028;-68
2022/07/13 01:33:00;;;;;;;5.47;2.33;;;19.10;99.90;;;;;;6242948;22;20022;-69
2022/07/13 01:35:26;;;;;;;2.30;2.10;;;19.10;99.90;;;;;;6270448;22;20059;-69
2022/07/13 01:37:54;;;;;;;3.13;1.90;;;19.10;99.90;;;;;;6242161;22;20394;-68
2022/07/13 01:40:20;;;;;;;4.75;2.05;;;19.10;99.90;;;;;;6271323;22;20011;-68
2022/07/13 01:42:48;;;;;;;3.30;1.77;;;19.10;99.90;;;;;;6260451;22;20023;-68
2022/07/13 01:45:15;;;;;;;2.78;1.90;;;19.10;99.90;;;;;;6268734;22;20473;-69
2022/07/13 01:47:43;;;;;;;8.20;2.35;;;19.00;99.90;;;;;;6241955;22;20031;-69
2022/07/13 01:50:10;;;;;;;5.97;1.98;;;19.00;99.90;;;;;;6268691;22;20366;-68
2022/07/13 01:52:37;;;;;;;7.38;2.25;;;19.10;99.90;;;;;;6268422;22;20022;-68
2022/07/13 01:55:07;;;;;;;3.55;2.30;;;19.00;99.90;;;;;;6269401;22;20106;-68
2022/07/13 01:57:33;;;;;;;3.05;2.00;;;19.00;99.90;;;;;;6243474;22;20098;-68
2022/07/13 02:00:15;;;;;;;4.80;2.47;;;19.00;99.90;;;;;;6266919;22;20047;-69
2022/07/13 02:02:41;;;;;;;3.08;2.35;;;19.00;99.90;;;;;;6268858;22;20390;-69
2022/07/13 02:05:09;;;;;;;2.70;2.47;;;19.00;99.90;;;;;;6266578;22;20018;-67
2022/07/13 02:07:35;;;;;;;2.63;2.42;;;19.00;99.90;;;;;;6270279;22;20024;-68
2022/07/13 02:10:01;;;;;;;2.97;2.65;;;19.00;99.90;;;;;;6268124;22;20023;-68
2022/07/13 02:12:27;;;;;;;4.80;2.90;;;19.00;99.90;;;;;;6267975;22;20007;-69
2022/07/13 02:14:53;;;;;;;3.25;2.95;;;19.00;99.90;;;;;;6268334;22;20110;-67
2022/07/13 02:17:18;;;;;;;6.30;2.80;;;19.00;99.90;;;;;;6268816;22;20022;-68
2022/07/13 02:19:44;;;;;;;6.80;3.03;;;19.00;99.90;;;;;;6270610;22;20514;-68
2022/07/13 02:22:10;;;;;;;12.25;3.10;;;19.00;99.90;;;;;;6266217;22;20018;-68
2022/07/13 02:24:35;;;;;;;3.88;3.00;;;19.00;99.90;;;;;;6268648;22;20058;-68
2022/07/13 02:27:01;;;;;;;4.97;2.63;;;19.00;99.90;;;;;;6269103;22;20020;-68
2022/07/13 02:29:27;;;;;;;4.07;3.03;;;19.00;99.90;;;;;;6242837;22;20023;-68
2022/07/13 02:31:52;;;;;;;4.95;2.90;;;19.00;99.90;;;;;;6243125;22;20391;-68
2022/07/13 02:34:18;;;;;;;5.43;4.15;;;19.00;99.90;;;;;;6266432;22;20095;-69
2022/07/13 02:36:44;;;;;;;3.90;3.20;;;18.90;99.90;;;;;;6270376;22;20031;-68
2022/07/13 02:39:09;;;;;;;5.40;3.72;;;19.00;99.90;;;;;;6267751;22;20050;-68
2022/07/13 02:41:35;;;;;;;4.65;3.65;;;18.90;99.90;;;;;;6268398;22;20012;-69
2022/07/13 02:44:01;;;;;;;3.92;3.38;;;19.00;99.90;;;;;;6265985;22;20027;-68
2022/07/13 02:46:27;;;;;;;4.28;3.38;;;18.90;99.90;;;;;;6270173;22;20030;-68
2022/07/13 02:48:52;;;;;;;10.20;4.13;;;18.90;99.90;;;;;;6268117;22;20313;-68
2022/07/13 02:51:18;;;;;;;4.22;3.53;;;18.90;99.90;;;;;;6266930;22;20434;-68
2022/07/13 02:53:44;;;;;;;8.38;3.70;;;18.90;99.90;;;;;;6268355;22;20030;-68
2022/07/13 02:56:10;;;;;;;9.52;3.50;;;18.90;99.90;;;;;;6268511;22;20015;-68
2022/07/13 02:58:35;;;;;;;4.68;3.80;;;18.90;99.90;;;;;;6268409;22;20748;-68
2022/07/13 03:01:02;;;;;;;5.90;3.78;;;18.90;99.90;;;;;;6266335;22;20020;-68
2022/07/13 03:03:28;;;;;;;7.65;3.58;;;18.90;99.90;;;;;;6269963;22;20490;-69
2022/07/13 03:05:56;;;;;;;10.10;3.95;;;18.90;99.90;;;;;;6267319;22;20458;-68
2022/07/13 03:08:28;;;;;;;3.85;3.55;;;18.90;99.90;;;;;;6244017;22;20402;-68
2022/07/13 03:10:54;;;;;;;4.00;3.70;;;18.90;99.90;;;;;;6268585;22;20090;-68
2022/07/13 03:13:20;;;;;;;4.70;3.75;;;18.90;99.90;;;;;;6265942;22;20444;-68
2022/07/13 03:15:45;;;;;;;9.98;3.97;;;18.90;99.90;;;;;;6268587;22;20019;-68
2022/07/13 03:18:11;;;;;;;3.95;3.55;;;19.00;99.90;;;;;;6267729;22;20098;-68
2022/07/13 03:20:39;;;;;;;5.78;3.78;;;19.00;99.90;;;;;;6268267;22;20023;-68
2022/07/13 03:23:05;;;;;;;4.30;3.90;;;19.00;99.90;;;;;;6265893;22;20314;-68
2022/07/13 03:25:30;;;;;;;10.45;3.83;;;19.10;99.90;;;;;;6269381;22;20051;-68
2022/07/13 03:27:56;;;;;;;4.50;3.50;;;19.10;99.90;;;;;;6242119;22;20019;-68
2022/07/13 03:30:22;;;;;;;6.00;3.33;;;19.10;99.90;;;;;;6268077;22;20069;-67
2022/07/13 03:32:48;;;;;;;8.07;4.15;;;19.20;99.90;;;;;;6268297;22;20016;-68
2022/07/13 03:35:14;;;;;;;3.97;3.70;;;19.20;99.90;;;;;;6267149;22;20030;-68
2022/07/13 03:37:40;;;;;;;16.33;3.85;;;19.20;99.90;;;;;;6270141;22;20061;-67
2022/07/13 03:40:06;;;;;;;4.68;4.05;;;19.20;99.90;;;;;;6265614;22;20027;-68
2022/07/13 03:42:34;;;;;;;7.80;3.80;;;19.20;99.90;;;;;;6269308;22;20016;-68
2022/07/13 03:45:01;;;;;;;3.97;3.78;;;19.20;99.90;;;;;;6268707;22;20020;-67
2022/07/13 03:47:26;;;;;;;4.30;3.80;;;19.20;99.90;;;;;;6267095;22;20079;-68
2022/07/13 03:49:52;;;;;;;5.00;3.50;;;19.20;99.90;;;;;;6269775;22;20055;-68
2022/07/13 03:52:18;;;;;;;4.05;3.70;;;19.20;99.90;;;;;;6267372;22;20034;-68
2022/07/13 03:54:43;;;;;;;7.47;3.80;;;19.20;99.90;;;;;;6267514;22;20050;-68
2022/07/13 03:57:09;;;;;;;11.18;3.88;;;19.20;99.90;;;;;;6265746;22;20030;-68
2022/07/13 03:59:35;;;;;;;4.28;3.80;;;19.20;99.90;;;;;;6217276;22;20022;-67
2022/07/13 04:02:01;;;;;;;4.38;3.75;;;19.20;99.90;;;;;;6266180;22;20354;-68
2022/07/13 04:04:27;;;;;;;4.93;3.78;;;19.20;99.90;;;;;;6267243;22;20024;-68
2022/07/13 04:06:53;;;;;;;4.35;3.95;;;19.20;99.90;;;;;;6269479;22;20015;-68
2022/07/13 04:09:19;;;;;;;5.40;3.80;;;19.20;99.90;;;;;;6266114;22;20019;-68
2022/07/13 04:11:48;;;;;;;7.13;4.18;;;19.20;99.90;;;;;;6267836;22;20324;-68
2022/07/13 04:14:13;;;;;;;6.23;3.73;;;19.20;99.90;;;;;;6265585;22;20023;-68
2022/07/13 04:16:39;;;;;;;7.35;4.13;;;19.30;99.90;;;;;;6267594;22;20081;-67
2022/07/13 04:19:05;;;;;;;4.38;3.95;;;19.20;99.90;;;;;;6267413;22;20020;-68
2022/07/13 04:21:31;;;;;;;4.20;3.80;;;19.20;99.90;;;;;;6267659;22;20020;-68
2022/07/13 04:23:57;;;;;;;6.90;3.85;;;19.30;99.90;;;;;;6267240;22;20521;-67
2022/07/13 04:26:24;;;;;;;9.32;4.00;;;19.30;99.90;;;;;;6268108;22;20093;-68
2022/07/13 04:28:49;;;;;;;4.22;3.83;;;19.30;99.90;;;;;;6269715;22;20342;-67
2022/07/13 04:31:15;;;;;;;5.88;4.20;;;19.30;99.90;;;;;;6265322;22;20016;-68
2022/07/13 04:33:41;;;;;;;4.28;3.88;;;19.30;99.90;;;;;;6267632;22;20019;-68
2022/07/13 04:36:07;;;;;;;5.07;3.75;;;19.30;99.90;;;;;;6239877;22;20012;-68
2022/07/13 04:38:34;;;;;;;4.10;3.70;;;19.30;99.90;;;;;;6269509;22;20453;-68
2022/07/13 04:41:00;;;;;;;4.25;3.95;;;19.30;99.90;;;;;;6267936;22;20023;-68
2022/07/13 04:43:26;;;;;;;4.55;3.78;;;19.40;99.90;;;;;;6268106;22;20050;-68
2022/07/13 04:45:52;;;;;;;4.90;4.00;;;19.40;99.90;;;;;;6267999;22;20023;-67
2022/07/13 04:48:18;;;;;;;10.82;4.22;;;19.40;99.90;;;;;;6269044;22;20012;-67
2022/07/13 04:50:43;;;;;;;7.15;3.90;;;19.40;99.90;;;;;;6269528;22;20091;-68
2022/07/13 04:53:09;;;;;;;5.38;4.13;;;19.40;99.90;;;;;;6241876;22;20094;-67
2022/07/13 04:55:39;;;;;;;4.15;3.85;;;19.40;99.90;;;;;;6269612;22;20020;-68
2022/07/13 04:58:07;;;;;;;4.47;4.07;;;19.40;99.90;;;;;;6268041;22;20027;-67
2022/07/13 05:00:34;;;;;;;4.43;4.10;;;19.40;99.90;;;;;;6270678;22;20099;-68
2022/07/13 05:03:00;;;;;;;5.00;3.53;;;19.50;99.90;;;;;;6270094;22;20098;-68
2022/07/13 05:05:30;;;;;;;4.50;4.10;;;19.50;99.90;;;;;;6266967;22;20105;-67
2022/07/13 05:07:56;;;;;;;4.15;3.85;;;19.50;99.90;;;;;;6244177;22;20012;-68
2022/07/13 05:10:22;;;;;;;3.95;3.55;;;19.50;99.90;;;;;;6266681;22;20086;-68
2022/07/13 05:12:48;;;;;;;3.97;3.58;;;19.50;99.90;;;;;;6269219;22;20104;-68
2022/07/13 05:15:13;;;;;;;4.47;3.65;;;19.50;99.90;;;;;;6240768;22;20039;-69
2022/07/13 05:17:39;;;;;;;4.07;3.72;;;19.60;99.90;;;;;;6270350;22;20034;-68
2022/07/13 05:20:06;;;;;;;3.88;3.58;;;19.60;99.90;;;;;;6268211;22;20087;-67
2022/07/13 05:22:31;;;;;;;6.63;3.95;;;19.60;99.90;;;;;;6268072;22;20107;-67
2022/07/13 05:24:57;;;;;;;4.25;3.35;;;19.60;99.90;;;;;;6270854;22;20028;-68
2022/07/13 05:27:23;;;;;;;6.60;3.60;;;19.60;99.90;;;;;;6268654;22;20326;-68
2022/07/13 05:29:50;;;;;;;5.35;3.58;;;19.60;99.90;;;;;;6269222;22;20016;-68
2022/07/13 05:32:16;;;;;;;4.05;3.75;;;19.60;99.90;;;;;;6216677;22;20019;-67
2022/07/13 05:34:42;;;;;;;3.85;3.45;;;19.60;99.90;;;;;;6268810;22;20055;-68
2022/07/13 05:37:08;;;;;;;6.00;3.78;;;19.60;99.90;;;;;;6266794;22;20024;-68
2022/07/13 05:39:33;;;;;;;4.05;3.45;;;19.60;99.90;;;;;;6264566;22;20027;-68
2022/07/13 05:41:59;;;;;;;4.85;3.25;;;19.60;99.90;;;;;;6241512;22;20026;-68
2022/07/13 05:44:25;;;;;;;3.55;3.30;;;19.60;99.90;;;;;;6266771;22;20106;-68
2022/07/13 05:46:51;;;;;;;3.85;3.08;;;19.70;99.90;;;;;;6270018;22;20077;-68
2022/07/13 05:49:16;;;;;;;6.28;3.28;;;19.70;99.90;;;;;;6241106;22;20106;-68
2022/07/13 05:51:42;;;;;;;4.75;3.50;;;19.70;99.90;;;;;;6268700;22;20350;-68
2022/07/13 05:54:08;;;;;;;4.00;3.30;;;19.70;99.90;;;;;;6268894;22;20023;-68
2022/07/13 05:56:34;;;;;;;3.58;3.38;;;19.80;99.90;;;;;;6243010;22;20443;-67
2022/07/13 05:58:59;;;;;;;4.38;3.10;;;19.80;99.90;;;;;;6269208;22;20023;-67
2022/07/13 06:01:25;;;;;;;10.00;3.65;;;19.90;99.90;;;;;;6269195;22;20011;-67
2022/07/13 06:03:51;;;;;;;5.28;3.58;;;19.90;99.90;;;;;;6270518;22;20023;-67
2022/07/13 06:06:17;;;;;;;10.77;3.13;;;20.00;99.90;;;;;;6268512;22;20057;-67
2022/07/13 06:08:43;;;;;;;5.10;3.38;;;20.00;99.90;;;;;;6268970;22;20100;-68
2022/07/13 06:11:08;;;;;;;8.07;3.70;;;20.00;99.90;;;;;;6241376;22;20022;-67
2022/07/13 06:13:34;;;;;;;5.38;3.63;;;20.10;99.90;;;;;;6217575;22;20016;-67
2022/07/13 06:16:01;;;;;;;7.38;3.45;;;20.10;99.90;;;;;;6268821;22;20011;-67
2022/07/13 06:18:27;;;;;;;4.82;3.72;;;20.10;99.90;;;;;;6269405;22;20443;-68
2022/07/13 06:20:53;;;;;;;5.00;3.83;;;20.10;99.90;;;;;;6270271;22;20016;-67
2022/07/13 06:23:20;;;;;;;6.72;4.40;;;20.10;99.90;;;;;;6268642;22;20019;-68
2022/07/13 06:25:46;;;;;;;11.75;4.20;;;20.10;99.90;;;;;;6268537;22;20015;-67
2022/07/13 06:28:13;;;;;;;4.93;4.20;;;20.10;99.90;;;;;;6268989;22;20065;-67
2022/07/13 06:30:39;;;;;;;4.78;4.28;;;20.10;99.90;;;;;;6269987;22;20019;-67
2022/07/13 06:33:05;;;;;;;5.65;4.70;;;20.20;99.90;;;;;;6266650;22;20343;-67
2022/07/13 06:35:31;;;;;;;8.38;4.95;;;20.20;99.90;;;;;;6242397;22;20012;-67
2022/07/13 06:37:58;;;;;;;7.43;5.40;;;20.20;99.90;;;;;;6269806;22;20015;-67
2022/07/13 06:40:24;;;;;;;7.82;5.30;;;20.20;99.90;;;;;;6269084;22;20077;-68
2022/07/13 06:42:50;;;;;;;5.65;4.75;;;20.20;99.90;;;;;;6268017;22;20073;-68
2022/07/13 06:45:16;;;;;;;6.95;4.85;;;20.20;99.90;;;;;;6268084;22;20034;-67
2022/07/13 06:47:42;;;;;;;5.95;5.30;;;20.30;99.90;;;;;;6268273;22;20459;-68
2022/07/13 06:50:08;;;;;;;14.32;5.35;;;20.30;99.90;;;;;;6268473;22;20502;-67
2022/07/13 06:52:34;;;;;;;5.70;5.20;;;20.40;99.90;;;;;;6267841;22;20062;-67
2022/07/13 06:55:00;;;;;;;8.27;5.90;;;20.40;99.90;;;;;;6269193;22;20023;-67
2022/07/13 06:57:26;;;;;;;8.93;5.50;;;20.50;99.90;;;;;;6269178;22;20504;-67
2022/07/13 06:59:52;;;;;;;11.90;5.65;;;20.60;99.90;;;;;;6270395;22;20055;-67
2022/07/13 07:02:17;;;;;;;13.05;5.72;;;20.80;99.90;;;;;;6267969;22;20150;-68
2022/07/13 07:04:43;;;;;;;8.98;5.13;;;20.90;99.90;;;;;;6270549;22;20016;-67
2022/07/13 07:07:10;;;;;;;11.90;5.57;;;21.00;99.90;;;;;;6266520;22;20449;-68
2022/07/13 07:09:36;;;;;;;14.45;6.00;;;21.10;99.90;;;;;;6269629;22;20026;-67
2022/07/13 07:12:01;;;;;;;7.30;5.72;;;21.30;99.90;;;;;;6265885;22;20023;-68
2022/07/13 07:14:28;;;;;;;9.07;6.05;;;21.50;99.90;;;;;;6267367;22;20073;-68
2022/07/13 07:16:53;;;;;;;12.63;6.35;;;21.50;99.90;;;;;;6266743;22;20438;-68
2022/07/13 07:19:20;;;;;;;14.25;7.78;;;21.60;99.90;;;;;;6268074;22;20015;-68
2022/07/13 07:21:45;;;;;;;10.85;7.60;;;21.70;99.90;;;;;;6269972;22;20043;-68
2022/07/13 07:24:11;;;;;;;12.20;7.15;;;21.70;99.90;;;;;;6267656;22;20019;-68
2022/07/13 07:26:37;;;;;;;12.98;7.43;;;21.70;99.90;;;;;;6267613;22;20141;-68
2022/07/13 07:29:02;;;;;;;10.13;7.50;;;21.70;99.90;;;;;;6266327;22;20484;-68
2022/07/13 07:31:28;;;;;;;12.20;8.45;;;21.80;99.90;;;;;;6267081;22;20023;-67
2022/07/13 07:33:54;;;;;;;14.98;8.18;;;21.90;99.90;;;;;;6268379;22;20034;-68
2022/07/13 07:36:20;;;;;;;12.85;8.63;;;21.80;99.90;;;;;;6266507;22;20065;-68
2022/07/13 07:38:45;;;;;;;12.70;8.30;;;22.20;99.90;;;;;;6241958;22;20351;-68
2022/07/13 07:41:11;;;;;;;9.50;7.50;;;22.50;99.90;;;;;;6267808;22;20074;-68
2022/07/13 07:43:37;;;;;;;10.85;8.15;;;22.80;99.90;;;;;;6266692;22;20443;-68
2022/07/13 07:46:03;;;;;;;11.60;8.10;;;23.10;99.90;;;;;;6265811;22;20019;-68
2022/07/13 07:48:29;;;;;;;10.60;8.63;;;23.30;99.90;;;;;;6266765;22;20091;-69
2022/07/13 07:50:55;;;;;;;11.32;7.63;;;23.30;99.90;;;;;;6265759;22;20055;-69
2022/07/13 07:53:21;;;;;;;12.60;8.48;;;23.50;99.90;;;;;;6241114;22;20027;-69
2022/07/13 07:55:46;;;;;;;13.38;8.35;;;23.40;99.90;;;;;;6267095;22;20312;-68
2022/07/13 07:58:13;;;;;;;13.68;8.05;;;23.60;99.90;;;;;;6268882;22;20012;-69
2022/07/13 08:00:43;;;;;;;13.45;7.22;;;23.80;99.90;;;;;;6269546;22;20012;-69
2022/07/13 08:03:09;;;;;;;11.95;8.05;;;23.90;99.90;;;;;;6265135;22;20024;-69
2022/07/13 08:05:36;;;;;;;10.80;8.05;;;24.20;99.90;;;;;;6269002;22;20469;-68
2022/07/13 08:08:04;;;;;;;12.48;6.78;;;24.30;98.80;;;;;;6267603;22;20026;-68
2022/07/13 08:10:30;;;;;;;16.15;7.13;;;24.30;99.90;;;;;;6268883;22;20024;-69
2022/07/13 08:12:59;;;;;;;13.07;6.43;;;24.50;98.70;;;;;;6266693;22;20020;-69
2022/07/13 08:15:25;;;;;;;10.13;5.90;;;24.60;98.80;;;;;;6266514;22;20082;-69
2022/07/13 08:17:50;;;;;;;13.77;6.68;;;24.70;97.50;;;;;;6266989;22;20012;-68
2022/07/13 08:20:16;;;;;;;14.85;6.78;;;24.90;99.90;;;;;;6266545;22;20530;-69
2022/07/13 08:22:42;;;;;;;13.23;6.70;;;25.10;97.70;;;;;;6269751;22;20015;-68
2022/07/13 08:25:08;;;;;;;12.85;6.82;;;25.20;96.80;;;;;;6268864;22;20031;-67
2022/07/13 08:27:33;;;;;;;10.90;7.45;;;25.20;92.90;;;;;;6272450;22;20019;-68
2022/07/13 08:29:59;;;;;;;9.23;7.28;;;25.20;96.90;;;;;;6244098;22;20015;-68
2022/07/13 08:32:26;;;;;;;16.88;7.15;;;25.20;93.80;;;;;;6272178;22;20015;-68
2022/07/13 08:40:20;;;;;;;18.70;6.65;;;25.50;97.90;;;;;;6271109;22;20020;-68
2022/07/13 08:42:47;;;;;;;10.93;5.55;;;25.80;92.60;;;;;;6268233;22;20093;-69
2022/07/13 08:45:13;;;;;;;16.77;6.47;;;25.80;94.70;;;;;;6244728;22;20537;-68
2022/07/13 08:47:42;;;;;;;9.90;5.97;;;25.60;86.20;;;;;;6269584;22;20023;-69
2022/07/13 08:50:09;;;;;;;17.98;5.90;;;25.60;90.80;;;;;;6271609;22;20081;-69
2022/07/13 08:52:37;;;;;;;16.75;6.13;;;25.50;96.10;;;;;;6271974;22;20019;-68
2022/07/13 08:55:05;;;;;;;11.85;6.20;;;25.60;91.50;;;;;;6270845;22;20050;-68
2022/07/13 08:57:36;;;;;;;9.85;4.72;;;25.30;90.20;;;;;;6244755;22;20012;-68
2022/07/13 09:00:06;;;;;;;10.85;5.03;;;25.20;96.60;;;;;;6243368;22;20019;-68
2022/07/13 09:02:32;;;;;;;14.63;4.80;;;25.10;95.70;;;;;;6269810;22;20019;-69
2022/07/13 09:04:58;;;;;;;15.13;5.30;;;25.20;97.60;;;;;;6270219;22;20027;-68
2022/07/13 09:07:24;;;;;;;8.55;4.90;;;25.20;91.80;;;;;;6243649;22;20095;-69
2022/07/13 09:09:56;;;;;;;9.82;4.57;;;25.20;92.10;;;;;;6271733;22;20028;-68
2022/07/13 09:12:23;;;;;;;11.02;4.70;;;25.20;90.80;;;;;;6270584;22;20486;-68
2022/07/13 09:14:50;;;;;;;10.23;4.55;;;25.30;91.20;;;;;;6269873;22;20023;-69
2022/07/13 09:17:33;;;;;;;9.93;5.28;;;25.40;94.30;;;;;;6268802;22;20377;-69
2022/07/13 09:20:03;;;;;;;13.13;5.45;;;25.50;95.50;;;;;;6271735;22;20091;-68
2022/07/13 09:22:29;;;;;;;9.93;5.43;;;25.40;93.10;;;;;;6273186;22;20016;-68
2022/07/13 09:25:01;;;;;;;10.68;6.38;;;25.10;99.80;;;;;;6270415;22;20026;-69
2022/07/13 09:27:26;;;;;;;13.00;6.93;;;25.10;98.60;;;;;;6272752;22;20016;-69
2022/07/13 09:29:52;;;;;;;15.50;6.60;;;25.00;98.40;;;;;;6268165;22;20020;-69
2022/07/13 09:32:18;;;;;;;12.85;6.18;;;24.90;99.70;;;;;;6269309;22;20028;-69
2022/07/13 09:34:48;;;;;;;14.60;7.63;;;24.80;99.40;;;;;;6268731;22;20308;-69
2022/07/13 09:37:15;;;;;;;11.00;8.73;;;24.70;99.90;;;;;;6268558;22;20563;-69
2022/07/13 09:40:00;;;;;;;11.80;7.50;;;24.60;99.90;;;;;;6267931;22;20023;-69
2022/07/13 09:42:29;;;;;;;12.70;8.02;;;24.50;99.90;;;;;;6268975;22;20028;-69
2022/07/13 09:47:54;;;;;;;;;;;24.60;99.00;;;;;;6267740;22;20026;-68
2022/07/13 09:50:21;;;;;;;13.02;7.15;;;24.60;97.30;;;;;;6268399;22;19915;-69
2022/07/13 09:52:47;;;;;;;12.07;7.13;;;24.50;98.90;;;;;;6268183;22;20016;-68
2022/07/13 09:55:20;;;;;;;8.95;6.25;;;24.40;99.50;;;;;;6267500;22;20093;-69
2022/07/13 09:57:52;;;;;;;6.75;5.03;;;24.50;99.90;;;;;;6265947;22;20342;-68
2022/07/13 10:00:20;;;;;;;10.02;5.18;;;24.50;97.20;;;;;;6267538;22;20411;-69
2022/07/13 10:02:47;;;;;;;8.50;5.20;;;24.60;99.70;;;;;;6270047;22;20384;-68
2022/07/13 10:05:15;;;;;;;18.83;4.90;;;24.50;91.60;;;;;;6267712;22;20145;-69
2022/07/13 10:07:43;;;;;;;7.90;4.55;;;24.50;96.40;;;;;;6266750;22;20027;-69
2022/07/13 10:10:13;;;;;;;9.25;5.20;;;24.40;91.40;;;;;;6243186;22;20023;-69
2022/07/13 10:12:39;;;;;;;12.18;4.70;;;24.30;95.50;;;;;;6265643;22;20454;-70
2022/07/13 10:15:06;;;;;;;20.17;6.60;;;24.20;92.40;;;;;;6268057;22;20023;-69
2022/07/13 10:17:33;;;;;;;7.45;4.47;;;24.20;92.30;;;;;;6268220;22;20019;-68
2022/07/13 10:20:11;;;;;;;6.70;4.70;;;24.20;94.20;;;;;;6267519;22;20023;-69
2022/07/13 10:22:41;;;;;;;11.63;5.25;;;24.20;92.80;;;;;;6267083;22;20030;-69
2022/07/13 10:25:08;;;;;;;8.85;3.97;;;24.30;90.50;;;;;;6268428;22;20019;-69
2022/07/13 10:27:37;;;;;;;8.32;4.25;;;24.30;92.30;;;;;;6269390;22;20016;-69
2022/07/13 10:30:08;;;;;;;6.70;3.80;;;24.30;96.60;;;;;;6265877;22;20051;-69
2022/07/13 10:32:36;;;;;;;14.77;4.38;;;24.40;92.00;;;;;;6267907;22;20020;-69
2022/07/13 10:35:05;;;;;;;5.07;3.80;;;24.30;91.40;;;;;;6266714;22;20350;-69
2022/07/13 10:38:09;;;;;;;;;;;24.20;85.50;;;;;;6270466;22;20026;-69
2022/07/13 10:40:36;;;;;;;10.77;4.30;;;24.30;95.70;;;;;;6266915;22;20072;-70
2022/07/13 10:43:20;;;;;;;12.55;5.53;;;24.20;92.80;;;;;;6265363;22;20152;-69
2022/07/13 10:45:52;;;;;;;8.07;5.45;;;24.20;97.90;;;;;;6267773;22;20105;-69
2022/07/13 10:48:24;;;;;;;9.23;4.68;;;23.90;97.60;;;;;;6268994;22;20098;-69
2022/07/13 10:50:58;;;;;;;10.85;5.07;;;23.90;99.90;;;;;;6266285;22;20030;-69
2022/07/13 10:53:50;;;;;;;10.93;5.20;;;23.80;99.90;;;;;;6269636;22;20099;-68
2022/07/13 10:56:18;;;;;;;10.18;4.78;;;23.90;99.90;;;;;;6267739;22;20338;-69
2022/07/13 10:58:49;;;;;;;9.98;4.40;;;23.80;99.90;;;;;;6267007;22;20534;-69
2022/07/13 11:01:35;;;;;;;14.90;4.95;;;23.70;99.90;;;;;;6266501;22;20439;-69
2022/07/13 11:04:02;;;;;;;8.98;3.30;;;23.60;99.90;;;;;;6266196;22;20047;-68
2022/07/13 11:06:29;;;;;;;10.88;3.42;;;23.70;95.90;;;;;;6268186;22;20054;-69
2022/07/13 11:09:14;;;;;;;7.80;3.90;;;23.80;99.90;;;;;;6265990;22;20423;-68
2022/07/13 11:11:58;;;;;;;10.45;4.32;;;23.90;99.90;;;;;;6267531;22;20019;-68
2022/07/13 11:14:36;;;;;;;6.22;3.92;;;24.00;99.90;;;;;;6241988;22;20019;-69
2022/07/13 11:17:14;;;;;;;6.30;3.15;;;24.00;99.00;;;;;;6266198;22;20019;-70
2022/07/13 11:19:55;;;;;;;6.97;3.28;;;23.90;95.60;;;;;;6269838;22;20076;-70
2022/07/13 11:22:22;;;;;;;8.15;2.65;;;23.90;99.90;;;;;;6216117;22;20439;-69
2022/07/13 11:25:16;;;;;;;8.85;2.67;;;23.80;91.70;;;;;;6268718;22;20763;-69
2022/07/13 11:27:44;;;;;;;8.80;2.33;;;23.80;98.40;;;;;;6267627;22;20023;-69
2022/07/13 11:30:13;;;;;;;10.27;2.72;;;23.80;93.90;;;;;;6265965;22;20023;-69
2022/07/13 11:32:41;;;;;;;15.15;2.83;;;23.80;93.10;;;;;;6269726;22;20034;-69
2022/07/13 11:35:07;;;;;;;8.07;2.33;;;23.80;95.10;;;;;;6265888;22;20510;-69
2022/07/13 11:37:34;;;;;;;8.57;2.60;;;23.90;96.90;;;;;;6267994;22;20520;-69
2022/07/13 11:40:00;;;;;;;6.93;2.28;;;23.80;92.40;;;;;;6240477;22;20027;-69
2022/07/13 11:42:26;;;;;;;2.90;1.88;;;23.70;93.70;;;;;;6268808;22;20016;-69
2022/07/13 11:44:54;;;;;;;;;;;23.60;87.70;;;;;;6267783;22;20027;-70
2022/07/13 11:47:21;;;;;;;5.50;1.80;;;23.70;90.60;;;;;;6267843;22;20420;-69
2022/07/13 11:49:49;;;;;;;4.70;1.80;;;23.80;90.70;;;;;;6268152;22;20490;-69
2022/07/13 11:52:21;;;;;;;4.47;1.70;;;24.00;85.10;;;;;;6267544;22;20476;-70
2022/07/13 11:55:02;;;;;;;3.90;1.60;;;24.00;88.50;;;;;;6268543;22;20739;-69
2022/07/13 11:57:30;;;;;;;6.28;2.20;;;23.80;79.20;;;;;;6268067;22;20423;-69
2022/07/13 12:00:08;;;;;;;2.07;1.47;;;23.50;90.50;;;;;;6267683;22;20051;-69
2022/07/13 12:02:36;;;;;;;4.78;1.70;;;23.40;96.80;;;;;;6271286;22;20246;-68
2022/07/13 12:05:03;;;;;;;2.53;1.60;;;23.30;96.70;;;;;;6267892;22;20020;-70
2022/07/13 12:07:30;;;;;;;4.60;1.45;;;23.40;95.30;;;;;;6268685;22;20026;-69
2022/07/13 12:09:58;;;;;;;5.72;1.52;;;23.40;94.70;;;;;;6265424;22;20080;-68
2022/07/13 12:12:33;;;;;;;2.55;1.38;;;23.40;94.70;;;;;;6267315;22;20382;-69
2022/07/13 12:14:59;;;;;;;7.68;1.52;;;23.40;94.70;;;;;;6266693;22;20053;-69
2022/07/13 12:17:27;;;;;;;5.60;1.80;;;23.50;98.50;;;;;;6266151;22;20131;-69
2022/07/13 12:20:10;;;;;;;2.40;1.83;;;23.50;95.50;;;;;;6267858;22;20047;-69
2022/07/13 12:22:36;;;;;;;5.53;2.38;;;23.50;97.90;;;;;;6266732;22;20020;-69
2022/07/13 12:25:03;;;;;;;9.52;2.25;;;23.50;99.40;;;;;;6268998;22;20023;-69
2022/07/13 12:27:29;;;;;;;9.90;1.98;;;23.40;95.90;;;;;;6266233;22;20023;-69
2022/07/13 12:30:10;;;;;;;8.50;2.28;;;23.00;98.50;;;;;;6266250;22;20508;-69
2022/07/13 12:32:56;;;;;;;4.70;1.85;;;22.60;99.90;;;;;;6269284;22;20026;-69
2022/07/13 12:35:28;;;;;;;7.93;1.95;;;22.50;99.90;;;;;;6267432;22;20023;-69
2022/07/13 12:37:55;;;;;;;8.90;1.80;;;22.50;99.90;;;;;;6270689;22;20070;-69
2022/07/13 12:40:59;;;;;;;11.30;2.20;;;22.50;99.90;;;;;;6264251;22;20020;-68
2022/07/13 12:43:30;;;;;;;8.07;2.15;;;22.50;99.90;;;;;;6265892;22;20022;-70
2022/07/13 12:46:03;;;;;;;6.90;1.70;;;22.20;99.90;;;;;;6268445;22;20098;-68
2022/07/13 12:48:31;;;;;;;7.97;1.67;;;21.90;99.90;;;;;;6265048;22;20059;-68
2022/07/13 12:51:05;;;;;;;5.20;1.83;;;22.00;99.90;;;;;;6267860;22;20346;-69
2022/07/13 12:53:51;;;;;;;7.70;1.98;;;21.80;99.90;;;;;;6264983;22;20473;-69
2022/07/13 12:56:19;;;;;;;5.90;1.95;;;21.80;99.90;;;;;;6267474;22;20016;-68